Time;durP1;ratioP1;P1;durP2;ratioP2;P2;SDS_P1;SDS_P2;PMS_P1;PMS_P2;Temp;Humidity;BMP_temperature;BMP_pressure;BME280_temperature;BME280_humidity;BME280_pressure;Samples;Min_cycle;Max_cycle;Signal;HPM_P1;HPM_P2
2024/04/15 00:00:08;;;;;;;5.35;2.13;;;13.50;88.10;;;;;;2258060;26;20002;-69
2024/04/15 00:01:09;;;;;;;3.03;1.75;;;13.50;88.10;;;;;;2257650;26;20010;-70
2024/04/15 00:02:09;;;;;;;4.30;1.80;;;13.40;87.90;;;;;;2257275;26;19999;-69
2024/04/15 00:03:10;;;;;;;3.08;1.75;;;13.40;87.90;;;;;;2258419;26;19999;-70
2024/04/15 00:04:10;;;;;;;2.20;1.42;;;13.40;87.80;;;;;;2259145;26;20002;-70
2024/04/15 00:05:11;;;;;;;5.70;1.85;;;13.30;87.60;;;;;;2256056;26;20043;-69
2024/04/15 00:06:11;;;;;;;4.38;1.80;;;13.30;87.90;;;;;;2259361;26;20078;-69
2024/04/15 00:07:12;;;;;;;4.03;1.88;;;13.40;88.40;;;;;;2256775;26;20034;-69
2024/04/15 00:08:12;;;;;;;5.03;1.75;;;13.30;89.00;;;;;;2240238;26;19996;-69
2024/04/15 00:09:13;;;;;;;3.05;1.27;;;13.30;89.40;;;;;;2244467;26;20007;-69
2024/04/15 00:10:13;;;;;;;4.80;1.80;;;13.30;89.10;;;;;;2258781;26;20070;-70
2024/04/15 00:11:14;;;;;;;2.85;1.40;;;13.30;88.70;;;;;;2257693;26;20018;-70
2024/04/15 00:12:14;;;;;;;2.83;1.83;;;13.40;88.70;;;;;;2259510;26;20013;-69
2024/04/15 00:13:15;;;;;;;3.40;1.73;;;13.30;88.90;;;;;;2258982;26;20001;-70
2024/04/15 00:14:16;;;;;;;6.78;2.17;;;13.40;89.20;;;;;;2258591;26;19994;-70
2024/04/15 00:15:17;;;;;;;3.00;1.60;;;13.40;89.60;;;;;;2256793;26;20787;-70
2024/04/15 00:16:17;;;;;;;2.75;1.20;;;13.30;89.50;;;;;;2259983;26;19994;-69
2024/04/15 00:17:18;;;;;;;3.60;1.55;;;13.30;89.30;;;;;;2260122;26;19995;-69
2024/04/15 00:18:18;;;;;;;4.07;1.60;;;13.30;89.30;;;;;;2259603;26;19994;-69
2024/04/15 00:19:19;;;;;;;4.05;1.92;;;13.30;89.50;;;;;;2262305;26;19994;-70
2024/04/15 00:20:19;;;;;;;4.63;1.85;;;13.30;89.60;;;;;;2261021;26;20030;-70
2024/04/15 00:21:20;;;;;;;5.47;1.67;;;13.30;89.90;;;;;;2243434;26;19994;-69
2024/04/15 00:22:20;;;;;;;3.60;1.58;;;13.30;90.00;;;;;;2245016;26;20009;-69
2024/04/15 00:23:21;;;;;;;5.65;1.83;;;13.30;90.00;;;;;;2260101;26;20420;-69
2024/04/15 00:24:21;;;;;;;3.17;1.45;;;13.40;90.00;;;;;;2262638;26;19994;-70
2024/04/15 00:25:22;;;;;;;5.22;1.80;;;13.30;90.00;;;;;;2258603;26;20005;-70
2024/04/15 00:26:22;;;;;;;6.00;1.83;;;13.30;90.10;;;;;;2243132;26;19999;-69
2024/04/15 00:27:23;;;;;;;4.47;1.60;;;13.30;90.10;;;;;;2243303;26;19999;-71
2024/04/15 00:28:25;;;;;;;2.45;1.60;;;13.30;90.20;;;;;;2244865;26;20010;-71
2024/04/15 00:29:26;;;;;;;2.92;1.60;;;13.40;90.30;;;;;;2243212;26;20003;-70
2024/04/15 00:30:26;;;;;;;3.85;1.45;;;13.30;90.20;;;;;;2242868;26;19999;-71
2024/04/15 00:31:27;;;;;;;2.85;1.38;;;13.30;90.10;;;;;;2243451;26;20073;-70
2024/04/15 00:32:27;;;;;;;3.25;1.63;;;13.40;90.20;;;;;;2246087;26;20022;-71
2024/04/15 00:33:28;;;;;;;2.40;1.75;;;13.30;90.10;;;;;;2245813;26;20002;-71
2024/04/15 00:34:28;;;;;;;4.78;1.80;;;13.40;90.30;;;;;;2240930;26;20003;-71
2024/04/15 00:35:29;;;;;;;3.63;2.10;;;13.30;90.50;;;;;;2244606;26;20000;-70
2024/04/15 00:36:29;;;;;;;5.07;1.92;;;13.30;90.70;;;;;;2240411;26;19995;-70
2024/04/15 00:37:30;;;;;;;4.60;1.95;;;13.40;90.90;;;;;;2245009;26;20032;-70
2024/04/15 00:38:30;;;;;;;6.53;2.17;;;13.30;90.90;;;;;;2234587;26;20007;-70
2024/04/15 00:39:31;;;;;;;4.88;1.95;;;13.30;90.90;;;;;;2246334;26;20087;-71
2024/04/15 00:40:32;;;;;;;2.97;1.60;;;13.30;90.90;;;;;;2244192;26;20803;-72
2024/04/15 00:41:32;;;;;;;3.95;1.95;;;13.30;91.00;;;;;;2241993;26;20009;-70
2024/04/15 00:42:33;;;;;;;5.47;1.98;;;13.30;91.00;;;;;;2243209;26;20013;-70
2024/04/15 00:43:33;;;;;;;3.97;1.80;;;13.30;91.00;;;;;;2244992;26;20096;-71
2024/04/15 00:44:34;;;;;;;2.53;1.70;;;13.30;91.00;;;;;;2242444;26;19999;-71
2024/04/15 00:45:35;;;;;;;5.93;2.25;;;13.30;91.00;;;;;;2249768;26;19999;-71
2024/04/15 00:46:36;;;;;;;4.43;1.65;;;13.30;91.10;;;;;;2245825;26;20049;-70
2024/04/15 00:47:37;;;;;;;4.32;1.65;;;13.30;91.10;;;;;;2243084;26;20018;-71
2024/04/15 00:48:37;;;;;;;2.67;2.05;;;13.30;90.90;;;;;;2244391;26;20475;-70
2024/04/15 00:49:39;;;;;;;3.25;1.90;;;13.30;91.00;;;;;;2244692;26;20666;-70
2024/04/15 00:50:43;;;;;;;2.25;1.50;;;13.30;91.20;;;;;;2243311;26;20003;-72
2024/04/15 00:51:44;;;;;;;4.75;2.03;;;13.30;91.10;;;;;;2245755;26;20098;-70
2024/04/15 00:52:45;;;;;;;3.42;1.95;;;13.30;91.30;;;;;;2242835;26;20075;-70
2024/04/15 00:53:47;;;;;;;6.75;2.20;;;13.30;91.30;;;;;;2245195;26;20431;-70
2024/04/15 00:54:47;;;;;;;6.07;2.60;;;13.30;91.40;;;;;;2243526;26;20522;-70
2024/04/15 00:55:53;;;;;;;4.55;1.98;;;13.20;91.50;;;;;;2241801;26;20683;-71
2024/04/15 00:56:54;;;;;;;3.17;1.90;;;13.20;91.50;;;;;;2235428;26;19995;-69
2024/04/15 00:57:55;;;;;;;5.18;2.25;;;13.20;91.40;;;;;;2249265;26;20086;-70
2024/04/15 00:58:57;;;;;;;2.78;1.80;;;13.20;91.60;;;;;;2243193;26;20080;-70
2024/04/15 00:59:58;;;;;;;3.90;2.08;;;13.20;91.60;;;;;;2240936;26;20010;-71
2024/04/15 01:01:00;;;;;;;4.53;2.10;;;13.20;91.70;;;;;;2242470;26;19999;-70
2024/04/15 01:02:01;;;;;;;3.53;1.70;;;13.20;91.70;;;;;;2239692;26;20027;-70
2024/04/15 01:03:03;;;;;;;3.00;1.85;;;13.20;91.60;;;;;;2244951;26;20003;-70
2024/04/15 01:04:04;;;;;;;3.13;1.80;;;13.20;91.50;;;;;;2243330;26;19992;-71
2024/04/15 01:05:05;;;;;;;4.22;1.95;;;13.10;91.50;;;;;;2238714;26;19996;-71
2024/04/15 01:06:05;;;;;;;2.95;1.85;;;13.10;91.50;;;;;;2243022;26;20006;-70
2024/04/15 01:07:06;;;;;;;5.88;2.22;;;13.10;91.40;;;;;;2241224;26;20053;-71
2024/04/15 01:08:08;;;;;;;4.72;2.08;;;13.10;91.60;;;;;;2244547;26;19995;-70
2024/04/15 01:09:08;;;;;;;4.85;2.05;;;13.10;91.70;;;;;;2249529;26;20075;-70
2024/04/15 01:10:09;;;;;;;3.75;2.28;;;13.10;91.80;;;;;;2249223;26;20007;-70
2024/04/15 01:11:11;;;;;;;6.50;2.28;;;13.10;92.00;;;;;;2243392;26;20027;-70
2024/04/15 01:12:12;;;;;;;3.95;2.47;;;13.10;92.20;;;;;;2245014;26;20014;-70
2024/04/15 01:13:13;;;;;;;3.97;2.13;;;13.10;92.20;;;;;;2244485;26;20014;-70
2024/04/15 01:14:13;;;;;;;4.43;2.63;;;13.00;92.30;;;;;;2243797;26;20000;-70
2024/04/15 01:15:14;;;;;;;6.30;2.58;;;13.00;92.20;;;;;;2234038;26;20000;-71
2024/04/15 01:16:15;;;;;;;4.85;1.90;;;13.00;92.20;;;;;;2235375;26;20348;-70
2024/04/15 01:17:15;;;;;;;5.28;2.80;;;13.00;92.20;;;;;;2241379;26;20018;-71
2024/04/15 01:18:16;;;;;;;3.88;2.50;;;13.00;92.40;;;;;;2244193;26;20445;-70
2024/04/15 01:19:16;;;;;;;5.18;2.45;;;13.00;92.60;;;;;;2242165;26;20337;-70
2024/04/15 01:20:17;;;;;;;5.15;2.47;;;13.00;92.80;;;;;;2243911;26;19995;-71
2024/04/15 01:21:17;;;;;;;4.63;2.55;;;13.00;92.70;;;;;;2243685;26;19999;-70
2024/04/15 01:22:23;;;;;;;3.92;2.60;;;12.90;92.60;;;;;;2243201;26;20372;-70
2024/04/15 01:23:27;;;;;;;4.70;2.97;;;13.00;92.80;;;;;;2241357;26;19998;-70
2024/04/15 01:24:28;;;;;;;6.00;2.60;;;12.90;92.90;;;;;;2247469;26;20014;-70
2024/04/15 01:25:28;;;;;;;5.25;2.30;;;12.90;92.80;;;;;;2243281;26;20027;-71
2024/04/15 01:26:29;;;;;;;7.50;3.25;;;12.90;92.70;;;;;;2252110;26;19999;-71
2024/04/15 01:27:30;;;;;;;5.95;3.00;;;12.90;92.70;;;;;;2259862;26;19998;-70
2024/04/15 01:28:31;;;;;;;4.38;2.53;;;12.90;92.80;;;;;;2252682;26;19995;-71
2024/04/15 01:29:31;;;;;;;8.40;3.08;;;12.90;92.70;;;;;;2250382;26;20009;-70
2024/04/15 01:30:32;;;;;;;2.78;2.42;;;12.90;92.90;;;;;;2254075;26;20009;-70
2024/04/15 01:31:32;;;;;;;3.88;2.10;;;12.80;92.80;;;;;;2257764;26;20003;-71
2024/04/15 01:32:33;;;;;;;8.05;3.92;;;12.80;92.70;;;;;;2262724;26;19997;-71
2024/04/15 01:33:33;;;;;;;5.97;3.70;;;12.80;92.80;;;;;;2252510;26;20005;-71
2024/04/15 01:34:34;;;;;;;5.97;3.75;;;12.90;93.00;;;;;;2257464;26;20005;-71
2024/04/15 01:35:34;;;;;;;6.72;3.10;;;12.80;93.10;;;;;;2261681;26;20006;-70
2024/04/15 01:36:35;;;;;;;7.78;3.47;;;12.80;93.10;;;;;;2259058;26;20443;-71
2024/04/15 01:37:35;;;;;;;3.60;2.38;;;12.80;93.20;;;;;;2243952;26;20343;-70
2024/04/15 01:38:36;;;;;;;5.32;3.17;;;12.80;92.90;;;;;;2245636;26;20001;-70
2024/04/15 01:39:36;;;;;;;7.88;3.33;;;12.80;92.90;;;;;;2259848;26;19995;-70
2024/04/15 01:40:37;;;;;;;8.18;3.70;;;12.80;93.10;;;;;;2257356;26;20013;-70
2024/04/15 01:41:37;;;;;;;5.53;3.63;;;12.80;93.30;;;;;;2255157;26;20003;-71
2024/04/15 01:42:38;;;;;;;7.70;3.90;;;12.70;93.40;;;;;;2247163;26;20561;-70
2024/04/15 01:43:38;;;;;;;5.32;3.72;;;12.80;93.60;;;;;;2249804;26;19995;-71
2024/04/15 01:44:39;;;;;;;8.18;3.38;;;12.80;93.80;;;;;;2259309;26;19994;-71
2024/04/15 01:45:39;;;;;;;4.95;3.13;;;12.70;93.80;;;;;;2254084;26;20010;-71
2024/04/15 01:46:40;;;;;;;6.65;3.65;;;12.70;93.80;;;;;;2257304;26;20012;-70
2024/04/15 01:47:44;;;;;;;6.10;3.25;;;12.70;93.90;;;;;;2261634;26;20017;-71
2024/04/15 01:48:45;;;;;;;6.45;3.42;;;12.70;93.90;;;;;;2258980;26;20546;-70
2024/04/15 01:49:45;;;;;;;5.13;3.22;;;12.70;93.90;;;;;;2256267;26;20487;-70
2024/04/15 01:50:46;;;;;;;5.75;3.45;;;12.60;93.80;;;;;;2248842;26;20007;-71
2024/04/15 01:51:46;;;;;;;4.47;2.92;;;12.60;93.90;;;;;;2248844;26;20058;-71
2024/04/15 01:52:47;;;;;;;6.03;4.40;;;12.70;93.90;;;;;;2240146;26;20010;-70
2024/04/15 01:53:47;;;;;;;5.68;2.80;;;12.60;93.90;;;;;;2244612;26;19999;-70
2024/04/15 01:54:48;;;;;;;4.90;2.97;;;12.60;93.90;;;;;;2258587;26;20103;-71
2024/04/15 01:55:49;;;;;;;4.47;3.00;;;12.60;94.00;;;;;;2258781;26;20003;-70
2024/04/15 01:56:49;;;;;;;6.43;2.90;;;12.60;93.90;;;;;;2259718;26;20852;-70
2024/04/15 01:57:50;;;;;;;5.25;3.38;;;12.60;93.80;;;;;;2259116;26;20109;-70
2024/04/15 01:58:50;;;;;;;4.93;2.70;;;12.50;93.80;;;;;;2259580;26;20090;-70
2024/04/15 01:59:51;;;;;;;5.10;3.08;;;12.50;93.80;;;;;;2248391;26;20053;-70
2024/04/15 02:00:51;;;;;;;6.53;3.13;;;12.50;93.70;;;;;;2251107;26;20003;-70
2024/04/15 02:01:52;;;;;;;4.72;3.08;;;12.50;93.80;;;;;;2257579;26;20351;-70
2024/04/15 02:02:52;;;;;;;6.18;3.40;;;12.50;94.00;;;;;;2244705;26;20021;-70
2024/04/15 02:03:56;;;;;;;5.78;3.50;;;12.50;94.10;;;;;;2242653;26;20412;-70
2024/04/15 02:04:57;;;;;;;5.65;3.47;;;12.50;94.10;;;;;;2260898;26;20011;-71
2024/04/15 02:05:57;;;;;;;4.82;3.13;;;12.50;94.20;;;;;;2257907;26;20010;-70
2024/04/15 02:06:58;;;;;;;7.43;3.47;;;12.40;94.30;;;;;;2262848;26;20005;-71
2024/04/15 02:07:59;;;;;;;7.63;3.58;;;12.40;94.30;;;;;;2255683;26;20015;-70
2024/04/15 02:09:00;;;;;;;5.22;3.25;;;12.40;94.40;;;;;;2257582;26;20009;-71
2024/04/15 02:10:00;;;;;;;5.30;3.35;;;12.40;94.50;;;;;;2257724;26;20018;-71
2024/04/15 02:11:01;;;;;;;6.13;3.92;;;12.40;94.50;;;;;;2261425;26;20065;-71
2024/04/15 02:12:02;;;;;;;7.38;4.25;;;12.40;94.60;;;;;;2260870;26;20495;-70
2024/04/15 02:13:02;;;;;;;6.22;3.28;;;12.40;94.90;;;;;;2261041;26;20459;-70
2024/04/15 02:14:03;;;;;;;6.32;3.33;;;12.40;95.00;;;;;;2258415;26;20035;-71
2024/04/15 02:15:04;;;;;;;8.57;4.13;;;12.40;94.90;;;;;;2259803;26;19998;-71
2024/04/15 02:16:04;;;;;;;6.72;4.68;;;12.30;95.00;;;;;;2257596;26;19999;-70
2024/04/15 02:17:05;;;;;;;4.82;3.55;;;12.40;95.20;;;;;;2244377;26;20000;-70
2024/04/15 02:18:05;;;;;;;9.23;3.05;;;12.30;95.20;;;;;;2228048;26;19995;-70
2024/04/15 02:19:06;;;;;;;6.72;3.97;;;12.30;95.30;;;;;;2246618;26;19995;-71
2024/04/15 02:20:07;;;;;;;7.88;4.10;;;12.30;95.40;;;;;;2257241;26;20006;-71
2024/04/15 02:21:08;;;;;;;6.03;3.75;;;12.30;95.50;;;;;;2259271;26;20077;-71
2024/04/15 02:22:08;;;;;;;5.60;3.53;;;12.30;95.50;;;;;;2242219;26;20003;-70
2024/04/15 02:23:09;;;;;;;5.30;3.42;;;12.30;95.40;;;;;;2243592;26;20006;-70
2024/04/15 02:24:13;;;;;;;7.40;3.85;;;12.30;95.40;;;;;;2260349;26;19999;-71
2024/04/15 02:25:13;;;;;;;5.18;3.88;;;12.30;95.40;;;;;;2261232;26;19994;-70
2024/04/15 02:26:14;;;;;;;7.13;4.40;;;12.30;95.50;;;;;;2261379;26;19998;-71
2024/04/15 02:27:14;;;;;;;6.70;4.32;;;12.30;95.50;;;;;;2242364;26;20444;-70
2024/04/15 02:28:15;;;;;;;3.75;3.40;;;12.30;95.60;;;;;;2246317;26;20597;-70
2024/04/15 02:29:15;;;;;;;6.35;3.75;;;12.30;95.40;;;;;;2262132;26;20425;-70
2024/04/15 02:30:16;;;;;;;7.35;3.55;;;12.30;95.40;;;;;;2257533;26;20842;-71
2024/04/15 02:31:16;;;;;;;6.38;3.15;;;12.30;95.40;;;;;;2260980;26;19998;-70
2024/04/15 02:32:18;;;;;;;6.18;3.60;;;12.20;95.40;;;;;;2260197;26;20009;-71
2024/04/15 02:33:19;;;;;;;6.63;3.38;;;12.20;95.30;;;;;;2259649;26;20391;-71
2024/04/15 02:34:20;;;;;;;6.50;3.58;;;12.20;95.20;;;;;;2248587;26;20004;-71
2024/04/15 02:35:20;;;;;;;6.03;3.80;;;12.20;95.10;;;;;;2245829;26;20071;-71
2024/04/15 02:36:21;;;;;;;6.15;4.20;;;12.20;95.10;;;;;;2259392;26;20074;-71
2024/04/15 02:37:21;;;;;;;7.20;4.25;;;12.20;95.20;;;;;;2258938;26;20105;-71
2024/04/15 02:38:22;;;;;;;7.30;4.78;;;12.20;95.30;;;;;;2259742;26;20009;-71
2024/04/15 02:39:23;;;;;;;8.15;4.70;;;12.20;95.40;;;;;;2257982;26;20006;-72
2024/04/15 02:40:23;;;;;;;5.70;4.43;;;12.10;95.30;;;;;;2259992;26;19995;-70
2024/04/15 02:41:24;;;;;;;8.82;4.78;;;12.10;95.40;;;;;;2255302;26;19994;-70
2024/04/15 02:42:24;;;;;;;6.20;4.47;;;12.10;95.50;;;;;;2257286;26;20010;-70
2024/04/15 02:43:25;;;;;;;6.72;4.63;;;12.10;95.70;;;;;;2263078;26;19995;-70
2024/04/15 02:44:25;;;;;;;7.68;5.07;;;12.10;95.70;;;;;;2255707;26;20035;-71
2024/04/15 02:45:26;;;;;;;7.15;4.30;;;12.10;95.80;;;;;;2258707;26;20350;-71
2024/04/15 02:46:26;;;;;;;6.88;4.88;;;12.10;96.00;;;;;;2259557;26;20015;-71
2024/04/15 02:47:27;;;;;;;9.60;5.18;;;12.10;96.10;;;;;;2258307;26;20009;-70
2024/04/15 02:48:27;;;;;;;6.70;4.97;;;12.10;96.30;;;;;;2254188;26;20022;-71
2024/04/15 02:49:28;;;;;;;7.22;5.32;;;12.10;96.60;;;;;;2261916;26;19994;-70
2024/04/15 02:50:28;;;;;;;7.55;5.40;;;12.00;96.90;;;;;;2258030;26;19991;-71
2024/04/15 02:51:31;;;;;;;10.40;5.32;;;12.00;96.70;;;;;;2264303;26;20005;-70
2024/04/15 02:52:31;;;;;;;9.68;5.20;;;12.00;96.90;;;;;;2257714;26;19994;-71
2024/04/15 02:53:32;;;;;;;8.02;5.68;;;12.00;97.00;;;;;;2243120;26;20010;-71
2024/04/15 02:54:33;;;;;;;9.25;5.80;;;12.00;97.10;;;;;;2244195;26;20455;-71
2024/04/15 02:55:33;;;;;;;6.13;4.60;;;12.00;97.20;;;;;;2260391;26;20382;-70
2024/04/15 02:56:34;;;;;;;9.02;5.47;;;12.00;97.30;;;;;;2260241;26;20005;-71
2024/04/15 02:57:34;;;;;;;5.72;4.93;;;12.00;97.20;;;;;;2247404;26;20035;-70
2024/04/15 02:58:35;;;;;;;12.93;5.90;;;12.00;97.10;;;;;;2243396;26;20000;-70
2024/04/15 02:59:35;;;;;;;6.47;5.00;;;12.00;97.20;;;;;;2260173;26;20131;-70
2024/04/15 03:00:36;;;;;;;6.95;5.32;;;11.90;97.20;;;;;;2259040;26;20010;-70
2024/04/15 03:01:36;;;;;;;7.50;5.20;;;12.00;97.20;;;;;;2261399;26;20003;-70
2024/04/15 03:02:37;;;;;;;4.68;4.25;;;12.00;97.10;;;;;;2257771;26;19998;-70
2024/04/15 03:03:38;;;;;;;9.55;5.68;;;11.90;97.00;;;;;;2258051;26;20016;-71
2024/04/15 03:04:38;;;;;;;8.70;7.05;;;11.90;97.10;;;;;;2256981;26;20042;-70
2024/04/15 03:05:40;;;;;;;9.15;5.88;;;11.90;97.40;;;;;;2257528;26;19999;-70
2024/04/15 03:06:40;;;;;;;10.40;7.85;;;11.90;97.40;;;;;;2259597;26;20007;-70
2024/04/15 03:07:41;;;;;;;10.48;7.80;;;11.90;97.40;;;;;;2263040;26;19990;-70
2024/04/15 03:08:41;;;;;;;13.02;7.97;;;11.90;97.60;;;;;;2258115;26;20401;-70
2024/04/15 03:09:42;;;;;;;15.43;8.85;;;11.90;98.00;;;;;;2257583;26;20337;-70
2024/04/15 03:10:42;;;;;;;11.32;8.05;;;11.90;98.20;;;;;;2260854;26;20339;-70
2024/04/15 03:11:43;;;;;;;14.48;8.10;;;11.80;98.30;;;;;;2258918;26;19998;-71
2024/04/15 03:12:48;;;;;;;11.45;8.48;;;11.80;98.30;;;;;;2263010;26;20075;-70
2024/04/15 03:13:49;;;;;;;9.80;6.65;;;11.80;98.70;;;;;;2257076;26;20622;-71
2024/04/15 03:14:50;;;;;;;9.00;7.22;;;11.80;98.60;;;;;;2255903;26;19995;-71
2024/04/15 03:15:54;;;;;;;8.77;7.88;;;11.80;98.40;;;;;;2259309;26;20338;-70
2024/04/15 03:16:55;;;;;;;8.90;7.13;;;11.80;98.40;;;;;;2257150;26;20014;-70
2024/04/15 03:17:55;;;;;;;11.10;7.45;;;11.80;98.20;;;;;;2261767;26;19999;-70
2024/04/15 03:18:56;;;;;;;13.13;8.10;;;11.70;98.20;;;;;;2241701;26;20014;-71
2024/04/15 03:19:56;;;;;;;12.85;9.95;;;11.80;98.40;;;;;;2241663;26;20522;-71
2024/04/15 03:21:04;;;;;;;13.07;9.38;;;11.70;98.70;;;;;;2258097;26;20457;-70
2024/04/15 03:22:05;;;;;;;13.32;9.15;;;11.70;99.00;;;;;;2259868;26;20010;-71
2024/04/15 03:23:05;;;;;;;11.15;9.73;;;11.70;99.40;;;;;;2261095;26;20003;-70
2024/04/15 03:24:06;;;;;;;13.27;9.13;;;11.70;99.60;;;;;;2259311;26;19999;-71
2024/04/15 03:25:06;;;;;;;11.88;10.63;;;11.70;99.70;;;;;;2261759;26;20443;-70
2024/04/15 03:26:07;;;;;;;11.23;10.07;;;11.70;99.90;;;;;;2245183;26;20012;-71
2024/04/15 03:27:07;;;;;;;12.80;10.13;;;11.70;99.90;;;;;;2247502;26;20049;-71
2024/04/15 03:28:08;;;;;;;15.10;11.77;;;11.70;99.90;;;;;;2244418;26;20035;-71
2024/04/15 03:29:09;;;;;;;10.85;9.40;;;11.70;99.90;;;;;;2243285;26;19995;-70
2024/04/15 03:30:09;;;;;;;15.75;11.80;;;11.70;99.90;;;;;;2244533;26;20010;-70
2024/04/15 03:31:10;;;;;;;13.75;11.82;;;11.70;99.90;;;;;;2243784;26;20598;-71
2024/04/15 03:32:10;;;;;;;14.90;11.48;;;11.70;99.90;;;;;;2242607;26;20003;-70
2024/04/15 03:33:11;;;;;;;16.73;12.00;;;11.70;99.90;;;;;;2243289;26;20460;-70
2024/04/15 03:34:11;;;;;;;13.60;11.63;;;11.70;99.90;;;;;;2246044;26;20687;-70
2024/04/15 03:35:15;;;;;;;13.68;11.93;;;11.70;99.90;;;;;;2242513;26;20368;-70
2024/04/15 03:36:16;;;;;;;14.65;11.50;;;11.70;99.90;;;;;;2243799;26;19999;-70
2024/04/15 03:37:16;;;;;;;14.63;11.20;;;11.70;99.90;;;;;;2246378;26;20044;-70
2024/04/15 03:38:17;;;;;;;13.30;11.95;;;11.70;99.90;;;;;;2242980;26;19996;-71
2024/04/15 03:39:17;;;;;;;16.63;12.77;;;11.70;99.90;;;;;;2246516;26;20014;-70
2024/04/15 03:40:18;;;;;;;16.55;13.20;;;11.60;99.90;;;;;;2243827;26;20013;-70
2024/04/15 03:41:18;;;;;;;11.85;10.35;;;11.60;99.90;;;;;;2240177;26;20275;-70
2024/04/15 03:42:19;;;;;;;16.48;12.27;;;11.60;99.90;;;;;;2246318;26;20015;-71
2024/04/15 03:43:20;;;;;;;17.92;12.90;;;11.60;99.90;;;;;;2244814;26;20002;-71
2024/04/15 03:44:20;;;;;;;15.68;11.63;;;11.60;99.90;;;;;;2243812;26;19999;-70
2024/04/15 03:45:21;;;;;;;14.35;11.65;;;11.60;99.90;;;;;;2243389;26;19996;-71
2024/04/15 03:46:22;;;;;;;11.80;10.60;;;11.60;99.90;;;;;;2244373;26;20000;-71
2024/04/15 03:47:22;;;;;;;13.90;10.82;;;11.60;99.90;;;;;;2241915;26;20015;-71
2024/04/15 03:48:23;;;;;;;13.75;11.82;;;11.60;99.90;;;;;;2248644;26;19999;-70
2024/04/15 03:49:23;;;;;;;12.52;10.57;;;11.60;99.90;;;;;;2247193;26;19999;-70
2024/04/15 03:50:24;;;;;;;13.43;10.98;;;11.60;99.90;;;;;;2239931;26;20014;-70
2024/04/15 03:51:24;;;;;;;13.45;11.25;;;11.60;99.90;;;;;;2244866;26;20337;-70
2024/04/15 03:52:25;;;;;;;16.45;11.30;;;11.60;99.90;;;;;;2250093;26;20003;-70
2024/04/15 03:53:25;;;;;;;14.73;11.45;;;11.60;99.90;;;;;;2251382;26;19999;-70
2024/04/15 03:54:26;;;;;;;13.88;11.20;;;11.50;99.90;;;;;;2243616;26;19999;-70
2024/04/15 03:55:26;;;;;;;13.13;10.57;;;11.50;99.90;;;;;;2237671;26;20016;-70
2024/04/15 03:56:27;;;;;;;11.90;10.43;;;11.50;99.90;;;;;;2239435;26;20475;-71
2024/04/15 03:57:27;;;;;;;12.63;11.43;;;11.50;99.90;;;;;;2245805;26;20401;-71
2024/04/15 03:58:28;;;;;;;15.38;10.65;;;11.50;99.90;;;;;;2248256;26;20065;-71
2024/04/15 03:59:28;;;;;;;13.43;11.02;;;11.50;99.90;;;;;;2244465;26;20011;-70
2024/04/15 04:00:30;;;;;;;13.27;10.98;;;11.50;99.90;;;;;;2243625;26;21084;-71
2024/04/15 04:01:30;;;;;;;14.38;11.40;;;11.50;99.90;;;;;;2245935;26;20018;-70
2024/04/15 04:02:31;;;;;;;13.68;10.98;;;11.50;99.90;;;;;;2242280;26;20334;-70
2024/04/15 04:03:31;;;;;;;13.13;11.23;;;11.50;99.90;;;;;;2242831;26;20000;-71
2024/04/15 04:04:32;;;;;;;14.13;10.05;;;11.50;99.90;;;;;;2245412;26;20013;-71
2024/04/15 04:05:32;;;;;;;12.80;9.32;;;11.50;99.90;;;;;;2243079;26;20014;-72
2024/04/15 04:06:33;;;;;;;14.95;11.85;;;11.50;99.90;;;;;;2245969;26;20533;-71
2024/04/15 04:07:33;;;;;;;12.27;10.05;;;11.50;99.90;;;;;;2243753;26;20013;-70
2024/04/15 04:08:34;;;;;;;11.98;10.40;;;11.50;99.90;;;;;;2243903;26;20004;-70
2024/04/15 04:09:34;;;;;;;11.75;10.35;;;11.50;99.90;;;;;;2243519;26;20000;-71
2024/04/15 04:10:35;;;;;;;14.80;9.88;;;11.50;99.90;;;;;;2244394;26;20068;-70
2024/04/15 04:11:36;;;;;;;11.52;9.95;;;11.50;99.90;;;;;;2242874;26;20007;-70
2024/04/15 04:12:36;;;;;;;15.30;11.23;;;11.40;99.90;;;;;;2244089;26;20075;-71
2024/04/15 04:13:37;;;;;;;16.05;10.18;;;11.40;99.90;;;;;;2245816;26;20011;-70
2024/04/15 04:14:37;;;;;;;12.52;10.32;;;11.40;99.90;;;;;;2244636;26;20355;-70
2024/04/15 04:15:40;;;;;;;13.98;10.45;;;11.40;99.90;;;;;;2243968;26;20001;-70
2024/04/15 04:16:40;;;;;;;14.18;11.48;;;11.40;99.90;;;;;;2243810;26;20003;-71
2024/04/15 04:17:43;;;;;;;11.88;9.75;;;11.40;99.90;;;;;;2244680;26;20065;-71
2024/04/15 04:18:47;;;;;;;14.77;11.30;;;11.40;99.90;;;;;;2245558;26;20555;-71
2024/04/15 04:19:48;;;;;;;13.00;10.50;;;11.40;99.90;;;;;;2242044;26;20010;-70
2024/04/15 04:20:49;;;;;;;12.73;10.70;;;11.40;99.90;;;;;;2241750;26;20073;-70
2024/04/15 04:21:49;;;;;;;11.13;9.10;;;11.30;99.90;;;;;;2246736;26;20011;-69
2024/04/15 04:22:50;;;;;;;12.00;9.70;;;11.30;99.90;;;;;;2251602;26;20006;-70
2024/04/15 04:23:50;;;;;;;16.38;11.05;;;11.30;99.90;;;;;;2242709;26;20098;-70
2024/04/15 04:24:51;;;;;;;14.35;10.90;;;11.30;99.90;;;;;;2242372;26;20088;-70
2024/04/15 04:25:52;;;;;;;18.17;11.45;;;11.30;99.90;;;;;;2247009;26;20093;-70
2024/04/15 04:26:52;;;;;;;11.68;10.00;;;11.30;99.90;;;;;;2255500;26;20010;-70
2024/04/15 04:27:53;;;;;;;15.73;10.55;;;11.30;99.90;;;;;;2246527;26;20431;-71
2024/04/15 04:28:53;;;;;;;15.70;10.65;;;11.20;99.90;;;;;;2231519;26;20002;-70
2024/04/15 04:29:54;;;;;;;15.95;10.27;;;11.20;99.90;;;;;;2238438;26;20560;-70
2024/04/15 04:31:01;;;;;;;13.07;9.48;;;11.20;99.90;;;;;;2254859;26;20689;-71
2024/04/15 04:32:02;;;;;;;15.90;9.13;;;11.20;99.90;;;;;;2249493;26;20074;-71
2024/04/15 04:33:03;;;;;;;13.20;9.70;;;11.20;99.90;;;;;;2236897;26;20040;-71
2024/04/15 04:34:04;;;;;;;12.93;9.65;;;11.20;99.90;;;;;;2242646;26;20300;-71
2024/04/15 04:35:04;;;;;;;11.13;9.32;;;11.10;99.90;;;;;;2249668;26;20025;-70
2024/04/15 04:36:05;;;;;;;13.90;9.65;;;11.10;99.90;;;;;;2250780;26;20018;-71
2024/04/15 04:37:05;;;;;;;15.38;9.10;;;11.10;99.90;;;;;;2260117;26;20016;-71
2024/04/15 04:38:06;;;;;;;13.40;8.85;;;11.10;99.90;;;;;;2242600;26;20626;-70
2024/04/15 04:39:07;;;;;;;12.10;8.80;;;11.10;99.90;;;;;;2242629;26;20458;-70
2024/04/15 04:40:08;;;;;;;15.45;8.70;;;11.10;99.90;;;;;;2257175;26;20355;-70
2024/04/15 04:41:09;;;;;;;12.77;7.88;;;11.00;99.90;;;;;;2260036;26;20075;-70
2024/04/15 04:42:09;;;;;;;10.27;7.57;;;11.00;99.90;;;;;;2259389;26;20005;-71
2024/04/15 04:43:10;;;;;;;14.18;9.07;;;11.00;99.90;;;;;;2257713;26;20347;-71
2024/04/15 04:44:10;;;;;;;11.40;7.88;;;11.00;99.90;;;;;;2258682;26;20010;-70
2024/04/15 04:45:11;;;;;;;11.18;8.05;;;11.00;99.90;;;;;;2258338;26;20083;-70
2024/04/15 04:46:12;;;;;;;11.65;7.57;;;11.00;99.90;;;;;;2255384;26;19995;-71
2024/04/15 04:47:14;;;;;;;12.13;8.43;;;11.00;99.90;;;;;;2261045;26;20469;-68
2024/04/15 04:48:14;;;;;;;13.32;8.10;;;11.00;99.90;;;;;;2254534;26;20007;-71
2024/04/15 04:49:15;;;;;;;10.27;7.60;;;11.00;99.90;;;;;;2238304;26;19996;-67
2024/04/15 04:50:16;;;;;;;13.00;8.43;;;11.00;99.90;;;;;;2244241;26;20089;-72
2024/04/15 04:51:16;;;;;;;14.30;8.20;;;11.00;99.90;;;;;;2250907;26;20007;-71
2024/04/15 04:52:17;;;;;;;11.27;8.25;;;11.00;99.90;;;;;;2250506;26;20443;-72
2024/04/15 04:53:17;;;;;;;11.70;8.50;;;11.00;99.90;;;;;;2258382;26;20010;-72
2024/04/15 04:54:18;;;;;;;16.00;9.90;;;11.00;99.90;;;;;;2257779;26;20009;-69
2024/04/15 04:55:18;;;;;;;11.57;8.07;;;11.00;99.90;;;;;;2249975;26;19994;-69
2024/04/15 04:56:19;;;;;;;13.52;9.75;;;11.00;99.90;;;;;;2250473;26;20001;-70
2024/04/15 04:57:20;;;;;;;13.60;8.55;;;11.00;99.90;;;;;;2251228;26;20003;-70
2024/04/15 04:58:20;;;;;;;13.25;8.60;;;11.00;99.90;;;;;;2246101;26;20532;-70
2024/04/15 04:59:22;;;;;;;13.85;8.70;;;11.00;99.90;;;;;;2257007;26;20010;-70
2024/04/15 05:00:23;;;;;;;12.38;9.27;;;11.00;99.90;;;;;;2258102;26;19994;-69
2024/04/15 05:01:24;;;;;;;10.32;8.65;;;11.00;99.90;;;;;;2259350;26;20007;-69
2024/04/15 05:02:25;;;;;;;14.10;9.07;;;11.00;99.90;;;;;;2255434;26;20454;-70
2024/04/15 05:03:25;;;;;;;12.82;9.15;;;11.00;99.90;;;;;;2258643;26;19994;-70
2024/04/15 05:04:26;;;;;;;12.30;8.52;;;11.00;99.90;;;;;;2255090;26;20116;-69
2024/04/15 05:05:27;;;;;;;14.75;9.40;;;11.00;99.90;;;;;;2257254;26;19998;-70
2024/04/15 05:06:27;;;;;;;11.70;8.35;;;11.00;99.90;;;;;;2258458;26;20010;-70
2024/04/15 05:07:28;;;;;;;13.25;8.85;;;11.00;99.90;;;;;;2254840;26;20707;-70
2024/04/15 05:08:29;;;;;;;12.48;8.57;;;11.00;99.90;;;;;;2257746;26;20010;-70
2024/04/15 05:09:29;;;;;;;10.02;8.50;;;11.00;99.90;;;;;;2257290;26;20002;-71
2024/04/15 05:10:30;;;;;;;13.75;9.23;;;11.00;99.90;;;;;;2233555;26;20010;-69
2024/04/15 05:11:30;;;;;;;13.68;8.35;;;11.00;99.90;;;;;;2231203;26;19996;-71
2024/04/15 05:12:31;;;;;;;12.32;8.27;;;11.00;99.90;;;;;;2257971;26;19991;-70
2024/04/15 05:13:32;;;;;;;13.68;8.20;;;11.00;99.90;;;;;;2262719;26;19994;-70